CST,Max TemperatureF,Mean TemperatureF,Min TemperatureF,Max Dew PointF,MeanDew PointF,Min DewpointF,Max Humidity, Mean Humidity, Min Humidity, Max Sea Level PressureIn, Mean Sea Level PressureIn, Min Sea Level PressureIn, Max VisibilityMiles, Mean VisibilityMiles, Min VisibilityMiles, Max Wind SpeedMPH, Mean Wind SpeedMPH, Max Gust SpeedMPH,PrecipitationIn, CloudCover, Events, WindDirDegrees
2013-2-1,44,29,14,19,13,7,77,57,32,30.48,30.33,30.20,10,10,9,17,8,,0.00,0,,159
2013-2-2,52,38,24,30,25,18,77,60,41,30.27,30.22,30.18,10,10,10,12,5,,0.00,1,,252
2013-2-3,51,42,34,29,25,20,76,54,31,30.29,30.17,29.98,10,10,10,12,7,,0.00,0,,235
2013-2-4,60,48,36,45,37,26,100,70,46,29.96,29.89,29.82,10,10,7,14,8,22,0.21,4,Rain-Thunderstorm,236
2013-2-5,64,47,30,49,34,30,100,70,30,30.06,29.99,29.92,10,10,5,13,3,16,0.00,0,,310
2013-2-6,61,48,36,42,36,31,86,67,46,30.11,30.02,29.95,10,10,9,20,5,24,0.00,2,,129
2013-2-7,54,49,43,54,49,41,100,96,86,30.09,29.92,29.87,10,8,1,20,8,25,0.18,8,Rain,322
2013-2-8,50,41,32,37,33,30,93,76,48,30.30,30.22,30.10,10,9,6,17,9,,0.00,3,,45
2013-2-9,46,39,32,45,35,30,100,86,56,30.22,30.03,29.83,10,9,6,17,9,24,0.16,5,Rain,128
2013-2-10,57,49,39,52,42,27,100,78,34,30.04,29.74,29.65,10,9,2,22,16,29,0.28,4,Rain-Thunderstorm,208
2013-2-11,52,41,30,28,26,23,85,62,34,30.21,30.13,30.05,10,10,10,10,3,,0.00,0,,317
2013-2-12,43,36,28,36,31,25,100,81,58,30.13,30.01,29.91,10,8,2,13,6,,0.21,6,Rain-Snow,28
2013-2-13,48,40,32,36,33,31,100,88,50,30.03,29.98,29.94,10,6,0,14,7,21,0.01,5,Fog-Snow,266
2013-2-14,55,44,33,35,32,27,85,64,44,30.16,30.04,29.96,10,10,10,10,7,,0.00,2,,281
2013-2-15,42,33,24,29,22,14,86,64,36,30.35,30.29,30.17,10,10,10,15,9,18,0.00,2,,332
2013-2-16,36,30,24,27,21,17,100,74,48,30.36,30.27,30.14,10,9,1,15,8,21,0.00,7,Snow,276
2013-2-17,61,44,28,33,26,17,69,48,30,30.13,29.98,29.81,10,10,10,18,8,30,0.00,0,,179
2013-2-18,57,46,32,52,40,25,84,71,41,30.12,29.77,29.60,10,10,4,28,20,40,0.10,5,Rain,230
2013-2-19,44,34,23,24,20,18,81,62,40,30.33,30.25,30.14,10,10,10,16,8,24,0.00,0,,321
2013-2-20,33,30,26,31,24,14,100,82,51,30.32,30.20,30.05,10,7,0,13,7,,0.16,7,Fog-Rain-Snow,82
2013-2-21,35,32,28,36,31,25,100,95,82,30.05,29.81,29.67,10,6,1,23,12,34,0.46,8,Rain-Thunderstorm,109
2013-2-22,36,28,21,32,21,17,100,78,57,30.14,30.04,29.89,10,10,9,21,11,25,0.00,2,,291
2013-2-23,43,31,19,25,22,19,96,73,45,30.11,30.03,29.97,10,9,6,8,2,,0.00,0,,319
2013-2-24,57,40,24,37,30,23,96,68,42,30.00,29.92,29.84,10,10,9,15,5,17,0.00,0,,126
2013-2-25,39,37,35,39,34,30,100,88,68,29.87,29.59,29.42,10,9,3,22,12,32,0.42,7,Rain-Thunderstorm,54
2013-2-26,35,32,30,36,32,30,100,97,92,29.88,29.58,29.37,10,5,0,16,11,25,0.04,8,Fog-Snow,316
2013-2-27,39,36,30,31,29,26,96,85,70,30.09,29.97,29.85,10,8,2,17,9,29,0.00,6,Snow,296
2013-2-28,35,32,28,28,27,25,93,83,70,30.20,30.16,30.09,10,10,7,14,10,21,0.00,6,,316